N312CL KGPI-KRKS
Flight info
| Callsign | N312CL |
|---|---|
| Flight time | N/A |
| Altitude | 29000 |
| Route | RIDDG2 MSO DLN COLMN |
| Aircraft | SF50/L-SDGRWY/L |
Departure
| Time | 2026-04-27 20:38 |
|---|---|
| Airport | Glacier Park International Airport (KGPI) |
Arrival
| Time | N/A |
|---|---|
| Airport | Southwest Wyoming Regional Airport (KRKS) |
| Time | Latitude | Longitude | Altitude | Speed | Heading |
|---|---|---|---|---|---|
| 2026-04-27 20:26 | 48.30990 | -114.24886 | 2972 ft | 0 kts | 226° |
| 2026-04-27 20:35 | 48.30985 | -114.24913 | 2972 ft | 8 kts | 278° |
| 2026-04-27 20:35 | 48.31020 | -114.25025 | 2972 ft | 15 kts | 285° |
| 2026-04-27 20:35 | 48.31026 | -114.25202 | 2972 ft | 18 kts | 271° |
| 2026-04-27 20:36 | 48.31012 | -114.25378 | 2972 ft | 16 kts | 213° |
| 2026-04-27 20:36 | 48.30915 | -114.25478 | 2971 ft | 18 kts | 215° |
| 2026-04-27 20:36 | 48.30804 | -114.25594 | 2972 ft | 20 kts | 215° |
| 2026-04-27 20:36 | 48.30681 | -114.25722 | 2972 ft | 23 kts | 214° |
| 2026-04-27 20:37 | 48.30625 | -114.25860 | 2974 ft | 13 kts | 306° |
| 2026-04-27 20:37 | 48.30695 | -114.25912 | 2973 ft | 17 kts | 28° |
| 2026-04-27 20:37 | 48.30915 | -114.25687 | 2969 ft | 64 kts | 35° |
| 2026-04-27 20:37 | 48.31416 | -114.25162 | 2977 ft | 109 kts | 33° |
| 2026-04-27 20:38 | 48.32065 | -114.24458 | 3250 ft | 118 kts | 36° |
| 2026-04-27 20:38 | 48.32736 | -114.23705 | 3572 ft | 127 kts | 37° |
| 2026-04-27 20:38 | 48.33490 | -114.22815 | 3935 ft | 140 kts | 40° |
| 2026-04-27 20:38 | 48.34272 | -114.21880 | 4431 ft | 145 kts | 32° |
| 2026-04-27 20:39 | 48.35284 | -114.21675 | 4833 ft | 158 kts | 346° |
| 2026-04-27 20:39 | 48.36379 | -114.22154 | 5244 ft | 171 kts | 332° |
| 2026-04-27 20:39 | 48.37212 | -114.23368 | 5680 ft | 166 kts | 301° |
| 2026-04-27 20:39 | 48.37812 | -114.24726 | 6447 ft | 146 kts | 304° |
| 2026-04-27 20:40 | 48.38446 | -114.26011 | 6645 ft | 167 kts | 304° |
| 2026-04-27 20:40 | 48.39145 | -114.27486 | 6993 ft | 174 kts | 304° |
| 2026-04-27 20:40 | 48.39842 | -114.28971 | 7474 ft | 173 kts | 303° |
| 2026-04-27 20:40 | 48.40532 | -114.30456 | 7935 ft | 173 kts | 304° |
| 2026-04-27 20:41 | 48.41230 | -114.31956 | 8352 ft | 175 kts | 303° |
| 2026-04-27 20:41 | 48.41695 | -114.32950 | 8662 ft | 175 kts | 304° |
| 2026-04-27 20:41 | 48.42404 | -114.34461 | 9107 ft | 177 kts | 304° |
| 2026-04-27 20:41 | 48.43095 | -114.35985 | 9555 ft | 176 kts | 299° |
| 2026-04-27 20:42 | 48.43469 | -114.37737 | 9952 ft | 177 kts | 278° |
| 2026-04-27 20:42 | 48.43433 | -114.39590 | 10350 ft | 179 kts | 259° |
| 2026-04-27 20:42 | 48.42969 | -114.41332 | 10759 ft | 182 kts | 241° |
| 2026-04-27 20:42 | 48.42176 | -114.42832 | 11122 ft | 185 kts | 233° |
| 2026-04-27 20:43 | 48.41358 | -114.44336 | 11528 ft | 185 kts | 234° |
| 2026-04-27 20:43 | 48.40552 | -114.45826 | 11940 ft | 186 kts | 234° |
| 2026-04-27 20:43 | 48.39727 | -114.47335 | 12340 ft | 187 kts | 234° |
| 2026-04-27 20:43 | 48.38896 | -114.48852 | 12734 ft | 188 kts | 234° |
| 2026-04-27 20:44 | 48.38064 | -114.50371 | 13142 ft | 188 kts | 234° |
| 2026-04-27 20:44 | 48.37171 | -114.51825 | 13527 ft | 193 kts | 222° |
| 2026-04-27 20:44 | 48.35980 | -114.52800 | 13916 ft | 198 kts | 204° |
| 2026-04-27 20:44 | 48.34604 | -114.53151 | 14276 ft | 204 kts | 185° |
| 2026-04-27 20:45 | 48.33173 | -114.53181 | 14622 ft | 206 kts | 186° |
| 2026-04-27 20:45 | 48.31738 | -114.53257 | 14970 ft | 207 kts | 186° |
| 2026-04-27 20:45 | 48.30292 | -114.53329 | 15290 ft | 209 kts | 185° |
| 2026-04-27 20:45 | 48.28836 | -114.53380 | 15647 ft | 210 kts | 185° |
| 2026-04-27 20:46 | 48.27387 | -114.53446 | 15999 ft | 212 kts | 185° |
| 2026-04-27 20:46 | 48.25905 | -114.53510 | 16372 ft | 213 kts | 185° |
| 2026-04-27 20:46 | 48.24420 | -114.53627 | 16704 ft | 214 kts | 192° |
| 2026-04-27 20:46 | 48.23041 | -114.54391 | 17065 ft | 211 kts | 212° |
| 2026-04-27 20:47 | 48.21909 | -114.55757 | 17426 ft | 208 kts | 231° |
| 2026-04-27 20:47 | 48.20978 | -114.57429 | 17778 ft | 210 kts | 232° |
| 2026-04-27 20:47 | 48.20017 | -114.59091 | 18159 ft | 212 kts | 232° |
| 2026-04-27 20:47 | 48.19053 | -114.60773 | 18486 ft | 213 kts | 232° |
| 2026-04-27 20:48 | 48.18086 | -114.62477 | 18805 ft | 216 kts | 233° |
| 2026-04-27 20:48 | 48.17124 | -114.64161 | 19163 ft | 215 kts | 232° |
| 2026-04-27 20:48 | 48.16146 | -114.65877 | 19431 ft | 218 kts | 233° |
| 2026-04-27 20:48 | 48.15114 | -114.67565 | 19719 ft | 223 kts | 224° |
| 2026-04-27 20:49 | 48.13767 | -114.68746 | 20040 ft | 228 kts | 204° |
| 2026-04-27 20:49 | 48.12206 | -114.69251 | 20362 ft | 233 kts | 185° |
| 2026-04-27 20:49 | 48.10593 | -114.68972 | 20680 ft | 236 kts | 164° |
| 2026-04-27 20:49 | 48.09039 | -114.68151 | 21006 ft | 237 kts | 161° |
| 2026-04-27 20:50 | 48.07481 | -114.67350 | 21374 ft | 236 kts | 161° |
| 2026-04-27 20:50 | 48.05924 | -114.66554 | 21727 ft | 237 kts | 161° |
| 2026-04-27 20:50 | 48.04367 | -114.65747 | 22072 ft | 237 kts | 160° |
| 2026-04-27 20:50 | 48.02810 | -114.64940 | 22429 ft | 237 kts | 160° |
| 2026-04-27 20:51 | 48.01253 | -114.64137 | 22771 ft | 237 kts | 160° |
| 2026-04-27 20:51 | 47.99696 | -114.63334 | 23123 ft | 236 kts | 160° |
| 2026-04-27 20:51 | 47.98140 | -114.62533 | 23480 ft | 236 kts | 160° |
| 2026-04-27 20:51 | 47.96587 | -114.61732 | 23771 ft | 237 kts | 160° |
| 2026-04-27 20:52 | 47.95046 | -114.60940 | 24037 ft | 237 kts | 160° |
| 2026-04-27 20:52 | 47.93495 | -114.60140 | 24346 ft | 235 kts | 160° |
| 2026-04-27 20:52 | 47.91943 | -114.59345 | 24591 ft | 236 kts | 160° |
| 2026-04-27 20:52 | 47.90381 | -114.58542 | 24863 ft | 237 kts | 160° |
| 2026-04-27 20:53 | 47.88819 | -114.57739 | 25115 ft | 238 kts | 159° |
| 2026-04-27 20:53 | 47.87250 | -114.56936 | 25359 ft | 238 kts | 159° |
| 2026-04-27 20:53 | 47.85680 | -114.56129 | 25614 ft | 239 kts | 159° |
| 2026-04-27 20:53 | 47.84126 | -114.55334 | 25860 ft | 239 kts | 159° |
| 2026-04-27 20:54 | 47.80969 | -114.53713 | 26383 ft | 240 kts | 159° |
| 2026-04-27 20:54 | 47.79382 | -114.52902 | 26630 ft | 241 kts | 158° |
| 2026-04-27 20:54 | 47.77788 | -114.52083 | 26891 ft | 242 kts | 158° |
| 2026-04-27 20:55 | 47.76189 | -114.51268 | 27151 ft | 242 kts | 158° |
| 2026-04-27 20:55 | 47.74591 | -114.50458 | 27400 ft | 243 kts | 157° |
| 2026-04-27 20:55 | 47.73020 | -114.49644 | 27722 ft | 240 kts | 158° |
| 2026-04-27 20:55 | 47.71439 | -114.48836 | 27971 ft | 241 kts | 158° |
| 2026-04-27 20:56 | 47.69849 | -114.48027 | 28201 ft | 242 kts | 158° |
| 2026-04-27 20:56 | 47.68256 | -114.47216 | 28456 ft | 242 kts | 158° |
| 2026-04-27 20:56 | 47.66663 | -114.46403 | 28704 ft | 242 kts | 157° |
| 2026-04-27 20:56 | 47.65061 | -114.45589 | 28952 ft | 243 kts | 157° |
| 2026-04-27 20:57 | 47.63436 | -114.44759 | 28990 ft | 252 kts | 157° |
| 2026-04-27 20:57 | 47.61746 | -114.43897 | 28999 ft | 261 kts | 158° |
| 2026-04-27 20:57 | 47.59992 | -114.43007 | 29002 ft | 270 kts | 158° |
| 2026-04-27 20:57 | 47.58186 | -114.42093 | 28997 ft | 278 kts | 158° |
| 2026-04-27 20:58 | 47.56327 | -114.41151 | 29007 ft | 285 kts | 158° |
| 2026-04-27 20:58 | 47.54428 | -114.40190 | 29006 ft | 291 kts | 158° |
| 2026-04-27 20:58 | 47.52519 | -114.39227 | 29005 ft | 296 kts | 159° |
| 2026-04-27 20:58 | 47.50553 | -114.38233 | 29003 ft | 300 kts | 159° |
| 2026-04-27 20:59 | 47.48562 | -114.37225 | 29009 ft | 303 kts | 159° |
| 2026-04-27 20:59 | 47.44530 | -114.35191 | 29007 ft | 309 kts | 159° |
| 2026-04-27 21:00 | 47.40418 | -114.33118 | 29002 ft | 314 kts | 159° |
| 2026-04-27 21:00 | 47.36241 | -114.31017 | 29005 ft | 319 kts | 159° |
| 2026-04-27 21:01 | 47.32038 | -114.28908 | 29005 ft | 321 kts | 160° |
| 2026-04-27 21:01 | 47.27781 | -114.26771 | 29009 ft | 324 kts | 160° |
| 2026-04-27 21:02 | 47.23507 | -114.24630 | 29014 ft | 324 kts | 160° |
| 2026-04-27 21:02 | 47.19237 | -114.22501 | 28996 ft | 323 kts | 160° |
| 2026-04-27 21:03 | 47.14949 | -114.20352 | 29012 ft | 327 kts | 159° |
| 2026-04-27 21:03 | 47.10658 | -114.18219 | 29002 ft | 325 kts | 160° |
| 2026-04-27 21:04 | 47.06376 | -114.16085 | 28996 ft | 325 kts | 160° |
| 2026-04-27 21:04 | 47.02097 | -114.13962 | 28994 ft | 325 kts | 160° |
| 2026-04-27 21:05 | 46.97815 | -114.11838 | 28986 ft | 325 kts | 160° |
| 2026-04-27 21:05 | 46.93526 | -114.09718 | 28990 ft | 325 kts | 160° |
| 2026-04-27 21:06 | 46.89451 | -114.07093 | 28975 ft | 319 kts | 145° |
| 2026-04-27 21:06 | 46.85726 | -114.03501 | 28979 ft | 320 kts | 146° |
| 2026-04-27 21:07 | 46.82015 | -113.99956 | 28985 ft | 320 kts | 145° |
| 2026-04-27 21:07 | 46.78287 | -113.96392 | 28990 ft | 320 kts | 146° |
| 2026-04-27 21:08 | 46.74554 | -113.92832 | 28998 ft | 320 kts | 146° |
| 2026-04-27 21:08 | 46.70857 | -113.89309 | 29012 ft | 317 kts | 147° |
| 2026-04-27 21:09 | 46.67159 | -113.85795 | 29014 ft | 317 kts | 147° |
| 2026-04-27 21:09 | 46.63468 | -113.82289 | 29027 ft | 317 kts | 147° |
| 2026-04-27 21:10 | 46.59791 | -113.78802 | 29028 ft | 317 kts | 147° |
| 2026-04-27 21:10 | 46.56085 | -113.75295 | 29032 ft | 317 kts | 147° |
| 2026-04-27 21:11 | 46.52404 | -113.71816 | 29032 ft | 313 kts | 147° |
| 2026-04-27 21:11 | 46.48759 | -113.68378 | 29027 ft | 312 kts | 148° |
| 2026-04-27 21:12 | 46.45128 | -113.64957 | 29021 ft | 311 kts | 147° |
| 2026-04-27 21:12 | 46.41531 | -113.61574 | 29029 ft | 310 kts | 148° |
| 2026-04-27 21:13 | 46.37914 | -113.58179 | 29020 ft | 310 kts | 148° |
| 2026-04-27 21:13 | 46.34304 | -113.54797 | 29025 ft | 309 kts | 148° |
| 2026-04-27 21:14 | 46.30695 | -113.51421 | 29023 ft | 309 kts | 148° |
| 2026-04-27 21:14 | 46.27082 | -113.48047 | 29029 ft | 309 kts | 148° |
| 2026-04-27 21:15 | 46.23468 | -113.44676 | 29031 ft | 309 kts | 148° |
| 2026-04-27 21:15 | 46.19867 | -113.41322 | 29029 ft | 310 kts | 148° |
| 2026-04-27 21:16 | 46.16248 | -113.37961 | 29034 ft | 311 kts | 148° |
| 2026-04-27 21:16 | 46.12589 | -113.34564 | 29038 ft | 314 kts | 149° |
| 2026-04-27 21:17 | 46.08908 | -113.31155 | 29042 ft | 314 kts | 149° |
| 2026-04-27 21:17 | 46.05225 | -113.27744 | 29039 ft | 314 kts | 149° |
| 2026-04-27 21:18 | 46.01550 | -113.24349 | 29037 ft | 313 kts | 149° |
| 2026-04-27 21:18 | 45.97913 | -113.20994 | 29036 ft | 313 kts | 150° |
| 2026-04-27 21:19 | 45.94257 | -113.17627 | 29040 ft | 312 kts | 150° |
| 2026-04-27 21:19 | 45.90598 | -113.14263 | 29040 ft | 313 kts | 150° |
| 2026-04-27 21:20 | 45.85110 | -113.09225 | 29041 ft | 312 kts | 150° |
| 2026-04-27 21:20 | 45.81460 | -113.05880 | 29033 ft | 311 kts | 150° |
| 2026-04-27 21:21 | 45.77814 | -113.02548 | 29034 ft | 311 kts | 150° |
| 2026-04-27 21:21 | 45.74163 | -112.99218 | 29033 ft | 311 kts | 150° |
| 2026-04-27 21:22 | 45.70515 | -112.95893 | 29036 ft | 311 kts | 150° |
| 2026-04-27 21:22 | 45.66888 | -112.92592 | 29032 ft | 311 kts | 150° |
| 2026-04-27 21:23 | 45.63254 | -112.89293 | 29034 ft | 309 kts | 151° |
| 2026-04-27 21:23 | 45.59617 | -112.85992 | 29034 ft | 309 kts | 151° |
| 2026-04-27 21:24 | 45.55986 | -112.82705 | 29027 ft | 309 kts | 151° |
| 2026-04-27 21:24 | 45.52355 | -112.79422 | 29017 ft | 309 kts | 151° |
| 2026-04-27 21:25 | 45.48720 | -112.76138 | 29014 ft | 309 kts | 151° |
| 2026-04-27 21:25 | 45.45112 | -112.72886 | 29003 ft | 308 kts | 152° |
| 2026-04-27 21:26 | 45.41486 | -112.69621 | 28998 ft | 308 kts | 152° |
| 2026-04-27 21:26 | 45.37858 | -112.66360 | 28990 ft | 308 kts | 152° |
| 2026-04-27 21:27 | 45.34230 | -112.63103 | 28987 ft | 308 kts | 152° |
| 2026-04-27 21:27 | 45.30599 | -112.59847 | 28969 ft | 308 kts | 152° |
| 2026-04-27 21:28 | 45.27002 | -112.56631 | 28985 ft | 307 kts | 152° |
| 2026-04-27 21:28 | 45.23383 | -112.53395 | 28986 ft | 307 kts | 152° |
| 2026-04-27 21:29 | 45.19759 | -112.50143 | 28985 ft | 308 kts | 152° |
| 2026-04-27 21:29 | 45.16744 | -112.47450 | 29002 ft | 308 kts | 152° |
| 2026-04-27 21:30 | 45.13115 | -112.44209 | 28988 ft | 308 kts | 152° |
| 2026-04-27 21:30 | 45.09533 | -112.41014 | 29005 ft | 305 kts | 153° |
| 2026-04-27 21:31 | 45.05933 | -112.37810 | 29008 ft | 305 kts | 153° |
| 2026-04-27 21:31 | 45.02346 | -112.34620 | 29007 ft | 305 kts | 153° |
| 2026-04-27 21:32 | 44.98744 | -112.31425 | 29010 ft | 306 kts | 153° |
| 2026-04-27 21:32 | 44.95137 | -112.28225 | 29002 ft | 306 kts | 153° |
| 2026-04-27 21:33 | 44.91524 | -112.25029 | 29000 ft | 307 kts | 153° |
| 2026-04-27 21:33 | 44.87933 | -112.21852 | 29002 ft | 306 kts | 153° |
| 2026-04-27 21:34 | 44.84318 | -112.18661 | 29002 ft | 306 kts | 153° |
| 2026-04-27 21:34 | 44.80702 | -112.15474 | 29000 ft | 306 kts | 153° |
| 2026-04-27 21:35 | 44.77085 | -112.12291 | 28994 ft | 306 kts | 153° |
| 2026-04-27 21:35 | 44.73467 | -112.09111 | 28996 ft | 307 kts | 153° |
| 2026-04-27 21:36 | 44.69842 | -112.05933 | 28998 ft | 307 kts | 153° |
| 2026-04-27 21:36 | 44.66228 | -112.02764 | 28997 ft | 306 kts | 153° |
| 2026-04-27 21:37 | 44.62605 | -111.99598 | 28990 ft | 307 kts | 153° |
| 2026-04-27 21:37 | 44.59009 | -111.96456 | 28990 ft | 306 kts | 153° |
| 2026-04-27 21:38 | 44.55382 | -111.93295 | 28986 ft | 306 kts | 153° |
| 2026-04-27 21:38 | 44.51756 | -111.90139 | 28987 ft | 306 kts | 153° |
| 2026-04-27 21:39 | 44.48135 | -111.86990 | 28986 ft | 306 kts | 153° |
| 2026-04-27 21:39 | 44.44513 | -111.83849 | 28985 ft | 306 kts | 153° |
| 2026-04-27 21:40 | 44.40888 | -111.80705 | 28981 ft | 306 kts | 153° |
| 2026-04-27 21:40 | 44.37261 | -111.77567 | 28981 ft | 306 kts | 153° |
| 2026-04-27 21:41 | 44.33661 | -111.74453 | 28981 ft | 306 kts | 153° |
| 2026-04-27 21:41 | 44.30036 | -111.71323 | 28977 ft | 306 kts | 153° |
| 2026-04-27 21:42 | 44.26410 | -111.68197 | 28965 ft | 306 kts | 154° |
| 2026-04-27 21:42 | 44.22780 | -111.65073 | 28979 ft | 306 kts | 154° |
| 2026-04-27 21:43 | 44.19156 | -111.61959 | 28974 ft | 306 kts | 154° |
| 2026-04-27 21:43 | 44.15531 | -111.58848 | 28975 ft | 306 kts | 154° |
| 2026-04-27 21:44 | 44.11924 | -111.55756 | 28979 ft | 306 kts | 154° |
| 2026-04-27 21:44 | 44.08294 | -111.52651 | 28978 ft | 306 kts | 154° |
| 2026-04-27 21:45 | 44.04664 | -111.49552 | 28976 ft | 306 kts | 154° |
| 2026-04-27 21:45 | 44.01033 | -111.46456 | 28979 ft | 306 kts | 154° |
| 2026-04-27 21:46 | 43.97407 | -111.43368 | 28981 ft | 306 kts | 154° |
| 2026-04-27 21:46 | 43.93779 | -111.40283 | 28982 ft | 306 kts | 154° |
| 2026-04-27 21:47 | 43.90158 | -111.37205 | 28979 ft | 305 kts | 155° |
| 2026-04-27 21:47 | 43.86534 | -111.34135 | 28980 ft | 305 kts | 154° |
| 2026-04-27 21:48 | 43.82907 | -111.31064 | 28983 ft | 305 kts | 155° |
| 2026-04-27 21:48 | 43.79282 | -111.27997 | 28983 ft | 305 kts | 154° |
| 2026-04-27 21:49 | 43.75678 | -111.24953 | 28966 ft | 305 kts | 155° |
| 2026-04-27 21:49 | 43.72059 | -111.21902 | 28987 ft | 305 kts | 155° |
| 2026-04-27 21:50 | 43.68435 | -111.18848 | 28988 ft | 305 kts | 155° |
| 2026-04-27 21:50 | 43.64811 | -111.15800 | 28985 ft | 305 kts | 155° |
| 2026-04-27 21:51 | 43.61188 | -111.12757 | 28983 ft | 304 kts | 155° |
| 2026-04-27 21:51 | 43.57595 | -111.09745 | 28957 ft | 303 kts | 155° |
| 2026-04-27 21:52 | 43.53989 | -111.06724 | 28948 ft | 303 kts | 155° |
| 2026-04-27 21:52 | 43.50379 | -111.03706 | 28944 ft | 303 kts | 155° |
| 2026-04-27 21:53 | 43.46766 | -111.00688 | 28945 ft | 304 kts | 155° |
| 2026-04-27 21:53 | 43.43150 | -110.97678 | 28945 ft | 303 kts | 155° |
| 2026-04-27 21:54 | 43.39581 | -110.94706 | 28940 ft | 301 kts | 156° |
| 2026-04-27 21:54 | 43.37793 | -110.93221 | 28938 ft | 300 kts | 156° |
| 2026-04-27 21:54 | 43.36006 | -110.91735 | 28937 ft | 300 kts | 156° |
| 2026-04-27 21:55 | 43.32419 | -110.88758 | 28945 ft | 301 kts | 156° |
| 2026-04-27 21:55 | 43.30627 | -110.87272 | 28946 ft | 300 kts | 156° |
| 2026-04-27 21:55 | 43.28844 | -110.85782 | 28946 ft | 301 kts | 156° |
| 2026-04-27 21:56 | 43.23466 | -110.81342 | 28949 ft | 300 kts | 156° |
| 2026-04-27 21:56 | 43.21696 | -110.79881 | 28955 ft | 300 kts | 156° |
| 2026-04-27 21:57 | 43.19844 | -110.78669 | 28947 ft | 288 kts | 173° |
| 2026-04-27 21:57 | 43.17905 | -110.78617 | 28946 ft | 273 kts | 198° |
| 2026-04-27 21:57 | 43.16256 | -110.79755 | 28945 ft | 263 kts | 223° |
| 2026-04-27 21:57 | 43.15092 | -110.81663 | 28953 ft | 261 kts | 236° |
| 2026-04-27 21:58 | 43.14081 | -110.83735 | 28957 ft | 262 kts | 237° |
| 2026-04-27 21:58 | 43.13085 | -110.85831 | 28969 ft | 263 kts | 237° |
| 2026-04-27 21:58 | 43.12091 | -110.87932 | 28964 ft | 263 kts | 237° |
| 2026-04-27 21:58 | 43.11091 | -110.90041 | 28967 ft | 264 kts | 237° |
| 2026-04-27 21:59 | 43.10089 | -110.92154 | 28956 ft | 265 kts | 237° |
| 2026-04-27 21:59 | 43.09086 | -110.94267 | 28957 ft | 265 kts | 237° |
| 2026-04-27 21:59 | 43.08082 | -110.96380 | 28959 ft | 265 kts | 237° |
| 2026-04-27 21:59 | 43.07085 | -110.98473 | 28957 ft | 265 kts | 237° |
| 2026-04-27 22:00 | 43.06081 | -111.00580 | 28954 ft | 264 kts | 237° |
| 2026-04-27 22:00 | 43.05077 | -111.02683 | 28951 ft | 264 kts | 237° |
| 2026-04-27 22:00 | 43.04070 | -111.04793 | 28950 ft | 264 kts | 237° |
| 2026-04-27 22:00 | 43.03067 | -111.06895 | 28949 ft | 264 kts | 237° |
| 2026-04-27 22:01 | 43.02060 | -111.09000 | 28951 ft | 265 kts | 237° |
| 2026-04-27 22:01 | 43.01054 | -111.11105 | 28951 ft | 265 kts | 237° |
| 2026-04-27 22:01 | 43.00048 | -111.13210 | 28944 ft | 264 kts | 237° |
| 2026-04-27 22:01 | 42.99045 | -111.15305 | 28937 ft | 264 kts | 237° |
| 2026-04-27 22:02 | 42.97790 | -111.17115 | 28942 ft | 266 kts | 218° |
| 2026-04-27 22:02 | 42.96129 | -111.18284 | 28939 ft | 273 kts | 203° |
| 2026-04-27 22:02 | 42.94254 | -111.18705 | 28939 ft | 282 kts | 186° |
| 2026-04-27 22:02 | 42.92294 | -111.18272 | 28936 ft | 292 kts | 168° |
| 2026-04-27 22:03 | 42.90476 | -111.16918 | 28939 ft | 305 kts | 149° |
| 2026-04-27 22:03 | 42.89025 | -111.14749 | 28958 ft | 314 kts | 134° |
| 2026-04-27 22:03 | 42.87716 | -111.12349 | 28783 ft | 319 kts | 133° |
| 2026-04-27 22:03 | 42.86371 | -111.09902 | 28206 ft | 324 kts | 134° |
| 2026-04-27 22:04 | 42.85003 | -111.07457 | 27641 ft | 325 kts | 135° |
| 2026-04-27 22:04 | 42.83635 | -111.05013 | 27084 ft | 325 kts | 135° |
| 2026-04-27 22:04 | 42.82269 | -111.02561 | 26535 ft | 324 kts | 135° |
| 2026-04-27 22:04 | 42.80906 | -111.00114 | 25998 ft | 324 kts | 135° |
| 2026-04-27 22:05 | 42.79536 | -110.97665 | 25470 ft | 325 kts | 135° |
| 2026-04-27 22:05 | 42.78158 | -110.95205 | 24951 ft | 327 kts | 136° |
| 2026-04-27 22:05 | 42.76780 | -110.92741 | 24443 ft | 328 kts | 136° |
| 2026-04-27 22:05 | 42.75396 | -110.90270 | 23944 ft | 329 kts | 136° |
| 2026-04-27 22:06 | 42.74008 | -110.87793 | 23430 ft | 329 kts | 136° |
| 2026-04-27 22:06 | 42.72617 | -110.85317 | 22849 ft | 330 kts | 136° |
| 2026-04-27 22:06 | 42.71225 | -110.82835 | 22261 ft | 330 kts | 135° |
| 2026-04-27 22:06 | 42.69827 | -110.80347 | 21713 ft | 332 kts | 136° |
| 2026-04-27 22:07 | 42.68425 | -110.77860 | 21130 ft | 331 kts | 134° |
| 2026-04-27 22:07 | 42.67024 | -110.75372 | 20595 ft | 331 kts | 134° |
| 2026-04-27 22:07 | 42.65620 | -110.72876 | 20059 ft | 334 kts | 134° |
| 2026-04-27 22:07 | 42.64202 | -110.70361 | 19536 ft | 335 kts | 133° |
| 2026-04-27 22:08 | 42.62799 | -110.67873 | 19032 ft | 337 kts | 133° |
| 2026-04-27 22:08 | 42.61368 | -110.65341 | 18527 ft | 339 kts | 133° |
| 2026-04-27 22:08 | 42.59933 | -110.62804 | 18002 ft | 339 kts | 132° |
| 2026-04-27 22:08 | 42.58508 | -110.60267 | 17408 ft | 337 kts | 132° |
| 2026-04-27 22:09 | 42.57086 | -110.57760 | 16857 ft | 333 kts | 132° |
| 2026-04-27 22:09 | 42.55674 | -110.55285 | 16300 ft | 330 kts | 131° |
| 2026-04-27 22:09 | 42.54275 | -110.52841 | 15752 ft | 324 kts | 133° |
| 2026-04-27 22:09 | 42.52542 | -110.50926 | 14922 ft | 323 kts | 153° |
| 2026-04-27 22:10 | 42.50474 | -110.49870 | 14229 ft | 309 kts | 170° |
| 2026-04-27 22:10 | 42.49099 | -110.49622 | 13957 ft | 290 kts | 183° |
| 2026-04-27 22:10 | 42.46715 | -110.50771 | 12746 ft | 279 kts | 228° |
| 2026-04-27 22:10 | 42.45822 | -110.52980 | 12443 ft | 257 kts | 250° |
| 2026-04-27 22:11 | 42.45256 | -110.55138 | 12704 ft | 227 kts | 251° |
| 2026-04-27 22:11 | 42.44852 | -110.57179 | 12568 ft | 221 kts | 261° |
| 2026-04-27 22:11 | 42.44815 | -110.59157 | 12563 ft | 213 kts | 277° |
| 2026-04-27 22:11 | 42.45363 | -110.61091 | 12242 ft | 230 kts | 299° |
| 2026-04-27 22:12 | 42.46220 | -110.62970 | 12010 ft | 236 kts | 299° |
| 2026-04-27 22:12 | 42.47068 | -110.64885 | 11888 ft | 236 kts | 298° |
| 2026-04-27 22:12 | 42.47860 | -110.66870 | 11515 ft | 246 kts | 295° |
| 2026-04-27 22:12 | 42.48565 | -110.68980 | 11435 ft | 242 kts | 289° |
| 2026-04-27 22:13 | 42.49021 | -110.71129 | 11484 ft | 238 kts | 282° |
| 2026-04-27 22:13 | 42.49423 | -110.73289 | 11463 ft | 237 kts | 284° |
| 2026-04-27 22:13 | 42.49841 | -110.75488 | 11199 ft | 246 kts | 285° |
| 2026-04-27 22:13 | 42.50339 | -110.77705 | 11076 ft | 247 kts | 287° |
| 2026-04-27 22:14 | 42.50921 | -110.79882 | 10942 ft | 247 kts | 290° |
| 2026-04-27 22:14 | 42.51558 | -110.81952 | 11168 ft | 233 kts | 292° |
| 2026-04-27 22:14 | 42.52166 | -110.84077 | 10736 ft | 249 kts | 288° |
| 2026-04-27 22:14 | 42.52709 | -110.86244 | 10873 ft | 237 kts | 289° |
| 2026-04-27 22:15 | 42.53410 | -110.88274 | 10530 ft | 247 kts | 304° |
| 2026-04-27 22:15 | 42.54783 | -110.89731 | 9937 ft | 258 kts | 331° |
| 2026-04-27 22:15 | 42.56475 | -110.90541 | 9525 ft | 253 kts | 340° |
| 2026-04-27 22:15 | 42.58111 | -110.91264 | 9244 ft | 241 kts | 338° |
| 2026-04-27 22:16 | 42.59673 | -110.91885 | 9033 ft | 231 kts | 344° |
| 2026-04-27 22:16 | 42.61165 | -110.92518 | 8498 ft | 215 kts | 333° |
| 2026-04-27 22:16 | 42.62039 | -110.93025 | 8285 ft | 199 kts | 334° |
| 2026-04-27 22:16 | 42.63215 | -110.93625 | 7993 ft | 170 kts | 341° |
| 2026-04-27 22:17 | 42.64316 | -110.94023 | 7598 ft | 153 kts | 348° |
| 2026-04-27 22:17 | 42.65251 | -110.94198 | 7327 ft | 124 kts | 355° |
| 2026-04-27 22:17 | 42.66083 | -110.94226 | 7100 ft | 118 kts | 358° |
| 2026-04-27 22:17 | 42.66888 | -110.94239 | 6894 ft | 114 kts | 359° |
| 2026-04-27 22:18 | 42.67673 | -110.94229 | 6705 ft | 113 kts | 0° |
| 2026-04-27 22:18 | 42.68462 | -110.94231 | 6530 ft | 112 kts | 360° |
| 2026-04-27 22:18 | 42.69241 | -110.94227 | 6382 ft | 112 kts | 360° |
| 2026-04-27 22:18 | 42.70020 | -110.94222 | 6219 ft | 111 kts | 1° |
| 2026-04-27 22:19 | 42.70691 | -110.94218 | 6190 ft | 78 kts | 0° |
| 2026-04-27 22:19 | 42.71024 | -110.94218 | 6184 ft | 32 kts | 1° |
| 2026-04-27 22:19 | 42.71129 | -110.94203 | 6183 ft | 8 kts | 70° |
| 2026-04-27 22:19 | 42.71133 | -110.94146 | 6183 ft | 6 kts | 87° |
| 2026-04-27 22:20 | 42.71121 | -110.94106 | 6183 ft | 4 kts | 171° |
| 2026-04-27 22:20 | 42.71090 | -110.94106 | 6184 ft | 5 kts | 174° |
| 2026-04-27 22:20 | 42.71073 | -110.94062 | 6184 ft | 3 kts | 188° |
| 2026-04-27 22:20 | 42.71060 | -110.94056 | 6184 ft | 1 kts | 84° |